Geraldton Greenstone Regional Airport
CYGQ : now visible

Airfield :











YOU CAN JOIN US ON...

 
LOGIN :

Register | Disclaimer

   EN    FR    IT 

 









Legend :    VFR   Marginal VFR   IFR   Intensive IFR   Very Intensive IFR
Visi :
Ceiling :
>= 8 km
>= 3000ft
5 to 8 km
1000 to 3000 ft
1500m to 5 km
500 to 1000 ft
800 to 1500m
200 to 500 ft
< 800m
< 200 ft
Symbols :   Thunderstorms  Fog  Heavy snow  Heavy precipitations  Wind > 20 kt






- Airport Elevation : 1144 ft
- IATA code : YGQ


CYGQ - Geraldton Greenstone Regional

CURRENT METAR :
  • 090500Z 17004KT 15SM BKN250 19/14 A2979 RMK CI7 SLP089 DENSITY ALT 2100FT

EXPIRED METARs :
  • 090400Z 18003KT 15SM SCT240 BKN260 19/14 A2979 RMK CI4CC3 SLP089 DENSITY ALT 2100FT
  • 090300Z 16004KT 15SM SCT240 BKN260 20/14 A2981 RMK CI4CC2 SLP095 DENSITY ALT 2100FT
  • 090200Z 20005KT 15SM FEW110 SCT240 22/13 A2981 RMK AC1CI3 AC TR SLP094 DENSITY ALT 2400FT

TAF TAF CYGQ
Valid from the 09 at 02:00 until the 09 at 14:00 UTC


090138Z 0902/0914 21007KT P6SM SCT100 BKN200
FM090600 22010KT P6SM BKN050
TEMPO 0908/0914 5SM -SHRA BR BKN020
PROB30 0908/0914 VRB15G25KT 1SM TSRA BR BKN007 OVC030CB RMK NXT FCST BY 090800Z
CZWG FIR / North America



MET'MAP, your aeronautical weather chart ! - Copyright ORBIFLY December 2007 - Disclaimer

ORBIFLY MET'MAP TEAM :

Programming & Development : Alexandra Zaïnal
Concept & original design : Baudouin d'Aumeries
Assistance for programming : Marc-Olivier Méhu
Technical & hardware support : Manuel Goepfert

Contact : metmap@orbifly.com




SOURCES & CREDITS :

   NOAA       Earth
Advisory